createdAt,value
2023-03-15T00:00:06.806Z,4.66
2023-03-15T00:01:06.803Z,4.63
2023-03-15T00:02:06.825Z,4.61
2023-03-15T00:03:06.771Z,4.61
2023-03-15T00:04:06.791Z,4.59
2023-03-15T00:05:06.744Z,4.57
2023-03-15T00:06:06.739Z,4.54
2023-03-15T00:07:06.743Z,4.51
2023-03-15T00:08:06.710Z,4.48
2023-03-15T00:09:06.705Z,4.45
2023-03-15T00:10:06.692Z,4.39
2023-03-15T00:11:06.683Z,4.35
2023-03-15T00:12:06.691Z,4.34
2023-03-15T00:13:06.676Z,4.28
2023-03-15T00:14:06.668Z,4.27
2023-03-15T00:15:06.641Z,4.26
2023-03-15T00:16:06.666Z,4.24
2023-03-15T00:17:06.645Z,4.26
2023-03-15T00:18:06.628Z,4.23
2023-03-15T00:19:06.596Z,4.21
2023-03-15T00:20:06.604Z,4.20
2023-03-15T00:21:06.586Z,4.17
2023-03-15T00:22:06.599Z,4.24
2023-03-15T00:23:06.561Z,4.24
2023-03-15T00:24:06.824Z,4.26
2023-03-15T00:25:06.539Z,4.28
2023-03-15T00:26:06.526Z,4.26
2023-03-15T00:27:06.534Z,4.24
2023-03-15T00:28:06.510Z,4.21
2023-03-15T00:29:06.509Z,4.20
2023-03-15T00:30:06.504Z,4.18
2023-03-15T00:31:06.526Z,4.12
2023-03-15T00:32:06.490Z,4.05
2023-03-15T00:33:06.459Z,4.05
2023-03-15T00:34:06.453Z,3.98
2023-03-15T00:35:06.429Z,3.91
2023-03-15T00:36:06.513Z,3.91
2023-03-15T00:37:06.433Z,3.85
2023-03-15T00:38:06.410Z,3.84
2023-03-15T00:39:06.391Z,3.80
2023-03-15T00:40:06.382Z,3.74
2023-03-15T00:41:06.384Z,3.70
2023-03-15T00:42:06.383Z,3.72
2023-03-15T00:43:06.352Z,3.69
2023-03-15T00:44:06.347Z,3.64
2023-03-15T00:45:06.332Z,3.62
2023-03-15T00:46:06.361Z,3.59
2023-03-15T00:47:06.339Z,3.59
2023-03-15T00:48:06.314Z,3.54
2023-03-15T00:49:06.299Z,3.55
2023-03-15T00:50:06.283Z,3.56
2023-03-15T00:51:06.265Z,3.54
2023-03-15T00:52:06.284Z,3.54
2023-03-15T00:53:06.252Z,3.54
2023-03-15T00:54:06.247Z,3.51
2023-03-15T00:55:06.237Z,3.52
2023-03-15T00:56:06.226Z,3.54
2023-03-15T00:57:06.229Z,3.51
2023-03-15T00:58:06.190Z,3.54
2023-03-15T00:59:06.194Z,3.51
2023-03-15T01:00:06.179Z,3.48
2023-03-15T01:01:06.166Z,3.46
2023-03-15T01:02:06.245Z,3.42
2023-03-15T01:03:06.183Z,3.42
2023-03-15T01:04:06.140Z,3.41
2023-03-15T01:05:06.148Z,3.42
2023-03-15T01:06:06.115Z,3.41
2023-03-15T01:07:06.127Z,3.41
2023-03-15T01:08:06.100Z,3.36
2023-03-15T01:09:06.077Z,3.35
2023-03-15T01:10:06.078Z,3.30
2023-03-15T01:11:06.094Z,3.30
2023-03-15T01:12:06.082Z,3.30
2023-03-15T01:13:06.039Z,3.29
2023-03-15T01:14:06.043Z,3.27
2023-03-15T01:15:06.021Z,3.25
2023-03-15T01:16:06.037Z,3.25
2023-03-15T01:17:06.028Z,3.22
2023-03-15T01:18:05.989Z,3.22
2023-03-15T01:19:05.991Z,3.17
2023-03-15T01:20:05.971Z,3.14
2023-03-15T01:21:05.952Z,3.14
2023-03-15T01:22:05.963Z,3.14
2023-03-15T01:23:05.934Z,3.14
2023-03-15T01:24:05.923Z,3.14
2023-03-15T01:25:05.912Z,3.11
2023-03-15T01:26:05.909Z,3.07
2023-03-15T01:27:05.914Z,3.11
2023-03-15T01:28:05.884Z,3.09
2023-03-15T01:29:06.694Z,3.09
2023-03-15T01:30:05.868Z,3.11
2023-03-15T01:31:05.880Z,3.12
2023-03-15T01:32:05.872Z,3.12
2023-03-15T01:33:05.854Z,3.11
2023-03-15T01:34:05.828Z,3.09
2023-03-15T01:35:05.815Z,3.05
2023-03-15T01:36:05.877Z,3.04
2023-03-15T01:37:05.823Z,3.02
2023-03-15T01:38:05.784Z,3.00
2023-03-15T01:39:05.774Z,2.99
2023-03-15T01:40:05.758Z,2.97
2023-03-15T01:41:05.767Z,2.96
2023-03-15T01:42:05.757Z,2.96
2023-03-15T01:43:05.730Z,2.96
2023-03-15T01:44:05.728Z,2.93
2023-03-15T01:45:05.712Z,2.91
2023-03-15T01:46:05.723Z,2.90
2023-03-15T01:47:05.785Z,2.90
2023-03-15T01:48:05.681Z,2.89
2023-03-15T01:49:05.684Z,2.86
2023-03-15T01:50:05.662Z,2.86
2023-03-15T01:51:05.665Z,2.87
2023-03-15T01:52:05.920Z,2.89
2023-03-15T01:53:05.631Z,2.87
2023-03-15T01:54:05.630Z,2.87
2023-03-15T01:55:05.640Z,2.86
2023-03-15T01:56:05.598Z,2.89
2023-03-15T01:57:05.609Z,2.87
2023-03-15T01:58:05.591Z,2.87
2023-03-15T01:59:05.586Z,2.86
2023-03-15T02:00:05.557Z,2.86
2023-03-15T02:01:05.595Z,2.84
2023-03-15T02:02:05.617Z,2.86
2023-03-15T02:03:05.545Z,2.86
2023-03-15T02:04:05.513Z,2.89
2023-03-15T02:05:05.527Z,2.89
2023-03-15T02:06:05.511Z,2.91
2023-03-15T02:07:05.509Z,2.94
2023-03-15T02:08:05.476Z,2.96
2023-03-15T02:09:05.513Z,2.96
2023-03-15T02:10:05.468Z,2.97
2023-03-15T02:11:05.446Z,2.96
2023-03-15T02:12:05.446Z,2.96
2023-03-15T02:13:05.424Z,2.94
2023-03-15T02:14:05.419Z,2.91
2023-03-15T02:15:05.417Z,2.90
2023-03-15T02:16:05.433Z,2.89
2023-03-15T02:17:05.396Z,2.87
2023-03-15T02:18:05.366Z,2.86
2023-03-15T02:19:05.356Z,2.84
2023-03-15T02:20:05.338Z,2.82
2023-03-15T02:21:05.343Z,2.84
2023-03-15T02:22:05.340Z,2.81
2023-03-15T02:23:05.326Z,2.81
2023-03-15T02:24:05.300Z,2.81
2023-03-15T02:25:05.312Z,2.82
2023-03-15T02:26:05.281Z,2.84
2023-03-15T02:27:05.333Z,2.84
2023-03-15T02:28:05.262Z,2.86
2023-03-15T02:29:05.252Z,2.87
2023-03-15T02:30:05.240Z,2.87
2023-03-15T02:31:05.241Z,2.89
2023-03-15T02:32:05.276Z,2.90
2023-03-15T02:33:05.227Z,2.93
2023-03-15T02:34:05.202Z,2.94
2023-03-15T02:35:05.198Z,2.93
2023-03-15T02:36:05.223Z,2.94
2023-03-15T02:37:05.212Z,2.97
2023-03-15T02:38:05.177Z,2.99
2023-03-15T02:39:05.155Z,3.02
2023-03-15T02:40:05.140Z,3.02
2023-03-15T02:41:05.135Z,3.02
2023-03-15T02:42:05.117Z,3.04
2023-03-15T02:43:05.168Z,3.04
2023-03-15T02:44:05.094Z,3.05
2023-03-15T02:45:05.100Z,3.00
2023-03-15T02:46:05.164Z,3.00
2023-03-15T02:47:05.091Z,2.99
2023-03-15T02:48:05.076Z,2.97
2023-03-15T02:49:05.060Z,2.99
2023-03-15T02:50:05.040Z,2.99
2023-03-15T02:51:05.038Z,2.99
2023-03-15T02:52:05.032Z,3.00
2023-03-15T02:53:05.029Z,3.02
2023-03-15T02:54:05.000Z,3.02
2023-03-15T02:55:04.993Z,3.00
2023-03-15T02:56:04.984Z,3.02
2023-03-15T02:57:04.973Z,3.05
2023-03-15T02:58:05.034Z,3.05
2023-03-15T02:59:04.995Z,3.07
2023-03-15T03:00:04.934Z,3.07
2023-03-15T03:01:04.974Z,3.05
2023-03-15T03:02:04.940Z,3.04
2023-03-15T03:03:04.935Z,3.07
2023-03-15T03:04:04.896Z,3.09
2023-03-15T03:05:04.885Z,3.14
2023-03-15T03:06:04.877Z,3.15
2023-03-15T03:07:04.875Z,3.17
2023-03-15T03:08:04.890Z,3.15
2023-03-15T03:09:04.845Z,3.15
2023-03-15T03:10:04.837Z,3.14
2023-03-15T03:11:04.866Z,3.17
2023-03-15T03:12:04.825Z,3.15
2023-03-15T03:13:04.842Z,3.17
2023-03-15T03:14:04.788Z,3.15
2023-03-15T03:15:04.793Z,3.14
2023-03-15T03:16:04.771Z,3.12
2023-03-15T03:17:04.808Z,3.12
2023-03-15T03:18:04.778Z,3.14
2023-03-15T03:19:04.749Z,3.14
2023-03-15T03:20:04.727Z,3.18
2023-03-15T03:21:04.721Z,3.17
2023-03-15T03:22:04.714Z,3.15
2023-03-15T03:23:04.716Z,3.18
2023-03-15T03:24:04.677Z,3.18
2023-03-15T03:25:04.676Z,3.20
2023-03-15T03:26:04.671Z,3.22
2023-03-15T03:27:04.661Z,3.22
2023-03-15T03:28:04.663Z,3.26
2023-03-15T03:29:04.636Z,3.27
2023-03-15T03:30:04.626Z,3.27
2023-03-15T03:31:04.666Z,3.26
2023-03-15T03:32:04.615Z,3.27
2023-03-15T03:33:04.616Z,3.27
2023-03-15T03:34:04.581Z,3.29
2023-03-15T03:35:04.595Z,3.30
2023-03-15T03:36:04.681Z,3.25
2023-03-15T03:37:04.556Z,3.22
2023-03-15T03:38:04.557Z,3.23
2023-03-15T03:39:04.597Z,3.20
2023-03-15T03:40:04.518Z,3.20
2023-03-15T03:41:04.560Z,3.20
2023-03-15T03:42:04.517Z,3.20
2023-03-15T03:43:04.508Z,3.22
2023-03-15T03:44:04.481Z,3.22
2023-03-15T03:45:04.474Z,3.22
2023-03-15T03:46:04.561Z,3.20
2023-03-15T03:47:04.460Z,3.22
2023-03-15T03:48:04.458Z,3.25
2023-03-15T03:49:04.433Z,3.29
2023-03-15T03:50:04.474Z,3.30
2023-03-15T03:51:04.414Z,3.30
2023-03-15T03:52:04.392Z,3.32
2023-03-15T03:53:04.409Z,3.33
2023-03-15T03:54:04.372Z,3.33
2023-03-15T03:55:04.378Z,3.33
2023-03-15T03:56:04.360Z,3.33
2023-03-15T03:57:04.341Z,3.32
2023-03-15T03:58:04.341Z,3.32
2023-03-15T03:59:04.329Z,3.36
2023-03-15T04:00:04.301Z,3.36
2023-03-15T04:01:04.314Z,3.36
2023-03-15T04:02:04.287Z,3.37
2023-03-15T04:03:04.295Z,3.36
2023-03-15T04:04:04.265Z,3.41
2023-03-15T04:05:04.266Z,3.44
2023-03-15T04:06:04.272Z,3.45
2023-03-15T04:07:04.242Z,3.44
2023-03-15T04:08:04.243Z,3.45
2023-03-15T04:09:04.231Z,3.49
2023-03-15T04:10:04.213Z,3.52
2023-03-15T04:11:04.236Z,3.55
2023-03-15T04:12:04.229Z,3.56
2023-03-15T04:13:04.203Z,3.59
2023-03-15T04:14:04.156Z,3.60
2023-03-15T04:15:04.157Z,3.62
2023-03-15T04:16:04.297Z,3.60
2023-03-15T04:17:04.138Z,3.59
2023-03-15T04:18:04.168Z,3.60
2023-03-15T04:19:04.124Z,3.60
2023-03-15T04:20:04.108Z,3.59
2023-03-15T04:21:04.096Z,3.59
2023-03-15T04:22:04.086Z,3.56
2023-03-15T04:23:04.096Z,3.59
2023-03-15T04:24:04.057Z,3.59
2023-03-15T04:25:04.064Z,3.59
2023-03-15T04:26:04.043Z,3.60
2023-03-15T04:27:04.040Z,3.59
2023-03-15T04:28:04.047Z,3.56
2023-03-15T04:29:04.016Z,3.60
2023-03-15T04:30:03.993Z,3.60
2023-03-15T04:31:04.041Z,3.62
2023-03-15T04:32:03.983Z,3.64
2023-03-15T04:33:04.003Z,3.64
2023-03-15T04:34:03.965Z,3.66
2023-03-15T04:35:03.957Z,3.67
2023-03-15T04:36:03.973Z,3.72
2023-03-15T04:37:03.956Z,3.72
2023-03-15T04:38:03.954Z,3.74
2023-03-15T04:39:03.917Z,3.74
2023-03-15T04:40:03.900Z,3.74
2023-03-15T04:41:03.888Z,3.74
2023-03-15T04:42:03.886Z,3.76
2023-03-15T04:43:03.895Z,3.76
2023-03-15T04:44:03.866Z,3.76
2023-03-15T04:45:03.850Z,3.74
2023-03-15T04:46:03.861Z,3.73
2023-03-15T04:47:03.910Z,3.72
2023-03-15T04:48:03.858Z,3.72
2023-03-15T04:49:03.812Z,3.69
2023-03-15T04:50:03.803Z,3.69
2023-03-15T04:51:03.799Z,3.67
2023-03-15T04:52:03.777Z,3.66
2023-03-15T04:53:03.785Z,3.66
2023-03-15T04:54:03.774Z,3.66
2023-03-15T04:55:03.746Z,3.67
2023-03-15T04:56:04.849Z,3.64
2023-03-15T04:57:03.741Z,3.66
2023-03-15T04:58:03.737Z,3.66
2023-03-15T04:59:03.715Z,3.66
2023-03-15T05:00:03.728Z,3.66
2023-03-15T05:01:03.726Z,3.67
2023-03-15T05:02:04.107Z,3.67
2023-03-15T05:03:03.689Z,3.69
2023-03-15T05:04:03.658Z,3.66
2023-03-15T05:05:03.646Z,3.67
2023-03-15T05:06:03.628Z,3.67
2023-03-15T05:07:03.631Z,3.66
2023-03-15T05:08:03.648Z,3.64
2023-03-15T05:09:03.611Z,3.63
2023-03-15T05:10:03.587Z,3.63
2023-03-15T05:11:03.579Z,3.62
2023-03-15T05:12:03.568Z,3.62
2023-03-15T05:13:03.587Z,3.63
2023-03-15T05:14:03.559Z,3.62
2023-03-15T05:15:03.631Z,3.63
2023-03-15T05:16:03.557Z,3.63
2023-03-15T05:17:03.522Z,3.60
2023-03-15T05:18:03.531Z,3.60
2023-03-15T05:19:03.507Z,3.59
2023-03-15T05:20:03.687Z,3.59
2023-03-15T05:21:04.382Z,3.60
2023-03-15T05:22:03.478Z,3.59
2023-03-15T05:23:03.487Z,3.59
2023-03-15T05:24:03.445Z,3.55
2023-03-15T05:25:03.441Z,3.55
2023-03-15T05:26:03.422Z,3.54
2023-03-15T05:27:03.428Z,3.52
2023-03-15T05:28:03.426Z,3.52
2023-03-15T05:29:03.395Z,3.49
2023-03-15T05:30:03.384Z,3.49
2023-03-15T05:31:03.397Z,3.48
2023-03-15T05:32:03.381Z,3.51
2023-03-15T05:33:03.383Z,3.48
2023-03-15T05:34:03.366Z,3.46
2023-03-15T05:35:03.358Z,3.46
2023-03-15T05:36:03.320Z,3.45
2023-03-15T05:37:03.318Z,3.44
2023-03-15T05:38:03.324Z,3.45
2023-03-15T05:39:03.302Z,3.46
2023-03-15T05:40:03.304Z,3.46
2023-03-15T05:41:03.275Z,3.46
2023-03-15T05:42:03.306Z,3.46
2023-03-15T05:43:03.270Z,3.44
2023-03-15T05:44:03.236Z,3.44
2023-03-15T05:45:03.263Z,3.42
2023-03-15T05:46:03.272Z,3.37
2023-03-15T05:47:03.219Z,3.35
2023-03-15T05:48:03.209Z,3.30
2023-03-15T05:49:03.198Z,3.29
2023-03-15T05:50:03.151Z,3.27
2023-03-15T05:51:03.117Z,3.26
2023-03-15T05:52:03.158Z,3.23
2023-03-15T05:53:03.168Z,3.23
2023-03-15T05:54:03.138Z,3.23
2023-03-15T05:55:03.125Z,3.22
2023-03-15T05:56:03.120Z,3.20
2023-03-15T05:57:03.121Z,3.20
2023-03-15T05:58:03.069Z,3.18
2023-03-15T05:59:03.023Z,3.18
2023-03-15T06:00:03.020Z,3.18
2023-03-15T06:01:03.060Z,3.18
2023-03-15T06:02:03.055Z,3.20
2023-03-15T06:03:03.394Z,3.22
2023-03-15T06:04:03.063Z,3.20
2023-03-15T06:05:03.020Z,3.18
2023-03-15T06:06:03.010Z,3.20
2023-03-15T06:07:02.994Z,3.20
2023-03-15T06:08:03.020Z,3.25
2023-03-15T06:09:02.981Z,3.27
2023-03-15T06:10:02.980Z,3.27
2023-03-15T06:11:02.967Z,3.29
2023-03-15T06:12:02.954Z,3.27
2023-03-15T06:13:02.943Z,3.29
2023-03-15T06:14:02.983Z,3.27
2023-03-15T06:15:02.928Z,3.29
2023-03-15T06:16:02.913Z,3.27
2023-03-15T06:17:02.893Z,3.29
2023-03-15T06:18:02.853Z,3.26
2023-03-15T06:19:03.780Z,3.25
2023-03-15T06:20:02.813Z,3.25
2023-03-15T06:21:02.800Z,3.25
2023-03-15T06:22:02.864Z,3.27
2023-03-15T06:23:02.786Z,3.27
2023-03-15T06:24:02.847Z,3.25
2023-03-15T06:25:02.816Z,3.23
2023-03-15T06:26:02.764Z,3.23
2023-03-15T06:27:02.793Z,3.25
2023-03-15T06:28:02.796Z,3.27
2023-03-15T06:29:02.743Z,3.33
2023-03-15T06:30:02.730Z,3.33
2023-03-15T06:31:02.733Z,3.35
2023-03-15T06:32:02.687Z,3.37
2023-03-15T06:33:02.717Z,3.41
2023-03-15T06:34:02.696Z,3.42
2023-03-15T06:35:02.665Z,3.44
2023-03-15T06:36:02.692Z,3.45
2023-03-15T06:37:02.635Z,3.46
2023-03-15T06:38:02.630Z,3.45
2023-03-15T06:39:02.630Z,3.45
2023-03-15T06:40:02.643Z,3.46
2023-03-15T06:41:02.591Z,3.45
2023-03-15T06:42:02.607Z,3.46
2023-03-15T06:43:02.571Z,3.45
2023-03-15T06:44:02.578Z,3.46
2023-03-15T06:45:02.549Z,3.46
2023-03-15T06:46:02.602Z,3.46
2023-03-15T06:47:02.532Z,3.46
2023-03-15T06:48:02.539Z,3.45
2023-03-15T06:49:02.529Z,3.46
2023-03-15T06:50:02.508Z,3.48
2023-03-15T06:51:02.486Z,3.45
2023-03-15T06:52:02.493Z,3.44
2023-03-15T06:53:02.480Z,3.44
2023-03-15T06:54:02.482Z,3.42
2023-03-15T06:55:02.460Z,3.44
2023-03-15T06:56:02.445Z,3.42
2023-03-15T06:57:02.432Z,3.44
2023-03-15T06:58:02.429Z,3.44
2023-03-15T06:59:02.435Z,3.44
2023-03-15T07:00:02.442Z,3.44
2023-03-15T07:01:02.390Z,3.44
2023-03-15T07:02:02.392Z,3.45
2023-03-15T07:03:02.406Z,3.46
2023-03-15T07:04:02.383Z,3.48
2023-03-15T07:05:02.349Z,3.49
2023-03-15T07:06:02.360Z,3.52
2023-03-15T07:07:02.328Z,3.52
2023-03-15T07:08:02.322Z,3.55
2023-03-15T07:09:02.328Z,3.60
2023-03-15T07:10:03.223Z,3.59
2023-03-15T07:11:02.289Z,3.59
2023-03-15T07:12:02.286Z,3.63
2023-03-15T07:13:02.309Z,3.67
2023-03-15T07:14:02.275Z,3.70
2023-03-15T07:15:02.230Z,3.70
2023-03-15T07:16:02.282Z,3.73
2023-03-15T07:17:02.226Z,3.74
2023-03-15T07:18:02.223Z,3.72
2023-03-15T07:19:02.232Z,3.72
2023-03-15T07:20:02.215Z,3.69
2023-03-15T07:21:02.192Z,3.67
2023-03-15T07:22:02.176Z,3.64
2023-03-15T07:23:02.166Z,3.60
2023-03-15T07:24:02.176Z,3.60
2023-03-15T07:25:02.134Z,3.62
2023-03-15T07:26:02.135Z,3.62
2023-03-15T07:27:02.119Z,3.62
2023-03-15T07:28:02.116Z,3.60
2023-03-15T07:29:02.143Z,3.62
2023-03-15T07:30:02.098Z,3.62
2023-03-15T07:31:02.090Z,3.64
2023-03-15T07:32:02.199Z,3.63
2023-03-15T07:33:02.175Z,3.64
2023-03-15T07:34:02.084Z,3.67
2023-03-15T07:35:02.058Z,3.69
2023-03-15T07:36:02.101Z,3.72
2023-03-15T07:37:02.021Z,3.73
2023-03-15T07:38:02.011Z,3.74
2023-03-15T07:39:02.028Z,3.76
2023-03-15T07:40:02.009Z,3.76
2023-03-15T07:41:01.977Z,3.78
2023-03-15T07:42:01.969Z,3.76
2023-03-15T07:43:01.960Z,3.76
2023-03-15T07:44:01.970Z,3.76
2023-03-15T07:45:01.928Z,3.78
2023-03-15T07:46:01.926Z,3.78
2023-03-15T07:47:01.923Z,3.81
2023-03-15T07:48:01.938Z,3.82
2023-03-15T07:49:01.918Z,3.85
2023-03-15T07:50:01.888Z,3.87
2023-03-15T07:51:01.875Z,3.91
2023-03-15T07:52:01.878Z,3.91
2023-03-15T07:53:01.846Z,3.92
2023-03-15T07:54:01.861Z,3.94
2023-03-15T07:55:01.846Z,3.98
2023-03-15T07:56:01.824Z,4.00
2023-03-15T07:57:01.814Z,4.00
2023-03-15T07:58:01.802Z,4.02
2023-03-15T07:59:01.809Z,4.05
2023-03-15T08:00:01.783Z,4.06
2023-03-15T08:01:01.763Z,4.09
2023-03-15T08:02:03.130Z,4.12
2023-03-15T08:03:01.790Z,4.12
2023-03-15T08:04:01.770Z,4.13
2023-03-15T08:05:01.729Z,4.17
2023-03-15T08:06:01.728Z,4.18
2023-03-15T08:07:01.702Z,4.21
2023-03-15T08:08:01.694Z,4.23
2023-03-15T08:09:01.696Z,4.26
2023-03-15T08:10:01.705Z,4.27
2023-03-15T08:11:01.670Z,4.31
2023-03-15T08:12:01.681Z,4.39
2023-03-15T08:13:01.637Z,4.41
2023-03-15T08:14:01.653Z,4.43
2023-03-15T08:15:01.638Z,4.45
2023-03-15T08:16:01.740Z,4.46
2023-03-15T08:17:01.607Z,4.49
2023-03-15T08:18:01.616Z,4.51
2023-03-15T08:19:01.604Z,4.56
2023-03-15T08:20:01.573Z,4.60
2023-03-15T08:21:01.558Z,4.63
2023-03-15T08:22:01.557Z,4.66
2023-03-15T08:23:01.539Z,4.69
2023-03-15T08:24:01.552Z,4.69
2023-03-15T08:25:01.532Z,4.71
2023-03-15T08:26:01.530Z,4.72
2023-03-15T08:27:01.500Z,4.75
2023-03-15T08:28:01.495Z,4.77
2023-03-15T08:29:01.525Z,4.82
2023-03-15T08:30:01.478Z,4.82
2023-03-15T08:31:01.451Z,4.79
2023-03-15T08:32:01.541Z,4.82
2023-03-15T08:33:01.499Z,4.83
2023-03-15T08:34:01.476Z,4.85
2023-03-15T08:35:01.434Z,4.85
2023-03-15T08:36:01.495Z,4.85
2023-03-15T08:37:01.390Z,4.83
2023-03-15T08:38:01.403Z,4.83
2023-03-15T08:39:01.400Z,4.82
2023-03-15T08:40:01.378Z,4.79
2023-03-15T08:41:01.357Z,4.79
2023-03-15T08:42:01.366Z,4.83
2023-03-15T08:43:01.379Z,4.85
2023-03-15T08:44:01.335Z,4.85
2023-03-15T08:45:01.309Z,4.86
2023-03-15T08:46:02.025Z,4.88
2023-03-15T08:47:01.352Z,4.89
2023-03-15T08:48:01.290Z,4.89
2023-03-15T08:49:01.290Z,4.89
2023-03-15T08:50:01.256Z,4.86
2023-03-15T08:51:01.247Z,4.86
2023-03-15T08:52:01.244Z,4.85
2023-03-15T08:53:01.227Z,4.85
2023-03-15T08:54:01.245Z,4.85
2023-03-15T08:55:01.218Z,4.85
2023-03-15T08:56:01.226Z,4.85
2023-03-15T08:57:01.193Z,4.85
2023-03-15T08:58:01.672Z,4.85
2023-03-15T08:59:01.163Z,4.86
2023-03-15T09:00:01.169Z,4.88
2023-03-15T09:01:01.152Z,4.88
2023-03-15T09:02:01.321Z,4.86
2023-03-15T09:03:01.121Z,4.86
2023-03-15T09:04:01.183Z,4.86
2023-03-15T09:05:01.114Z,4.86
2023-03-15T09:06:01.093Z,4.88
2023-03-15T09:07:01.078Z,4.86
2023-03-15T09:08:01.077Z,4.86
2023-03-15T09:09:01.054Z,4.85
2023-03-15T09:10:02.418Z,4.85
2023-03-15T09:11:01.042Z,4.86
2023-03-15T09:12:01.125Z,4.83
2023-03-15T09:13:01.037Z,4.85
2023-03-15T09:14:01.044Z,4.85
2023-03-15T09:15:01.009Z,4.86
2023-03-15T09:16:00.991Z,4.88
2023-03-15T09:17:01.046Z,4.88
2023-03-15T09:18:00.971Z,4.88
2023-03-15T09:19:00.967Z,4.88
2023-03-15T09:20:00.982Z,4.91
2023-03-15T09:21:01.128Z,4.91
2023-03-15T09:22:15.914Z,4.94
2023-03-15T09:23:01.923Z,4.94
2023-03-15T09:24:00.914Z,4.94
2023-03-15T09:25:00.905Z,4.97
2023-03-15T09:26:00.887Z,4.97
2023-03-15T09:27:00.880Z,5.00
2023-03-15T09:28:00.887Z,5.04
2023-03-15T09:29:00.861Z,5.09
2023-03-15T09:30:00.898Z,5.14
2023-03-15T09:31:00.852Z,5.16
2023-03-15T09:32:00.834Z,5.24
2023-03-15T09:33:00.911Z,5.29
2023-03-15T09:34:00.813Z,5.32
2023-03-15T09:35:00.810Z,5.36
2023-03-15T09:36:00.829Z,5.39
2023-03-15T09:37:00.778Z,5.43
2023-03-15T09:38:00.788Z,5.44
2023-03-15T09:39:00.755Z,5.47
2023-03-15T09:40:00.782Z,5.50
2023-03-15T09:41:00.746Z,5.51
2023-03-15T09:42:00.733Z,5.55
2023-03-15T09:43:00.716Z,5.57
2023-03-15T09:44:00.707Z,5.59
2023-03-15T09:45:00.711Z,5.61
2023-03-15T09:46:00.725Z,5.61
2023-03-15T09:47:00.677Z,5.66
2023-03-15T09:48:00.672Z,5.69
2023-03-15T09:49:00.661Z,5.72
2023-03-15T09:50:00.672Z,5.72
2023-03-15T09:51:00.637Z,5.73
2023-03-15T09:52:00.620Z,5.76
2023-03-15T09:53:00.616Z,5.77
2023-03-15T09:54:00.610Z,5.82
2023-03-15T09:55:00.609Z,5.84
2023-03-15T09:56:00.604Z,5.84
2023-03-15T09:57:00.571Z,5.84
2023-03-15T09:58:00.567Z,5.87
2023-03-15T09:59:00.557Z,5.88
2023-03-15T10:00:00.670Z,5.94
2023-03-15T10:01:00.532Z,5.97
2023-03-15T10:02:00.538Z,5.98
2023-03-15T10:03:00.502Z,6.02
2023-03-15T10:04:00.513Z,6.05
2023-03-15T10:05:00.504Z,6.08
2023-03-15T10:06:00.489Z,6.08
2023-03-15T10:07:00.467Z,6.12
2023-03-15T10:08:00.473Z,6.18
2023-03-15T10:09:00.459Z,6.30
2023-03-15T10:10:00.458Z,6.34
2023-03-15T10:11:00.427Z,6.34
2023-03-15T10:12:00.407Z,6.37
2023-03-15T10:13:00.407Z,6.38
2023-03-15T10:14:00.395Z,6.38
2023-03-15T10:15:00.409Z,6.40
2023-03-15T10:16:00.412Z,6.40
2023-03-15T10:17:00.368Z,6.45
2023-03-15T10:18:00.359Z,6.46
2023-03-15T10:19:00.339Z,6.49
2023-03-15T10:20:00.349Z,6.47
2023-03-15T10:21:00.323Z,6.49
2023-03-15T10:22:00.311Z,6.52
2023-03-15T10:23:00.312Z,6.53
2023-03-15T10:24:00.300Z,6.56
2023-03-15T10:25:00.314Z,6.64
2023-03-15T10:26:00.271Z,6.86
2023-03-15T10:27:00.269Z,6.92
2023-03-15T10:28:00.269Z,7.10
2023-03-15T10:29:00.241Z,7.37
2023-03-15T10:30:00.240Z,7.64
2023-03-15T10:31:00.258Z,7.92
2023-03-15T10:32:00.251Z,8.14
2023-03-15T10:33:00.248Z,8.26
2023-03-15T10:34:00.201Z,8.41
2023-03-15T10:35:00.220Z,8.60
2023-03-15T10:36:10.660Z,8.92
2023-03-15T10:37:01.151Z,9.19
2023-03-15T10:38:00.144Z,9.19
2023-03-15T10:39:00.130Z,9.14
2023-03-15T10:40:00.143Z,9.11
2023-03-15T10:41:00.120Z,9.14
2023-03-15T10:42:00.125Z,9.16
2023-03-15T10:43:00.098Z,9.18
2023-03-15T10:44:00.098Z,9.19
2023-03-15T10:45:00.133Z,9.19
2023-03-15T10:46:00.060Z,9.12
2023-03-15T10:47:02.962Z,8.98
2023-03-15T10:48:01.359Z,8.95
2023-03-15T10:49:00.036Z,8.95
2023-03-15T10:50:00.053Z,8.90
2023-03-15T10:51:00.033Z,8.86
2023-03-15T10:52:00.002Z,8.77
2023-03-15T10:52:59.983Z,8.70
2023-03-15T10:53:59.984Z,8.92
2023-03-15T10:55:04.426Z,9.24
2023-03-15T10:55:59.956Z,9.48
2023-03-15T10:56:59.937Z,9.67
2023-03-15T10:57:59.948Z,9.85
2023-03-15T10:59:11.825Z,10.01
2023-03-15T11:00:00.913Z,10.27
2023-03-15T11:00:59.897Z,10.54
2023-03-15T11:01:59.942Z,10.73
2023-03-15T11:02:59.904Z,10.97
2023-03-15T11:03:59.859Z,11.18
2023-03-15T11:04:59.868Z,11.38
2023-03-15T11:05:59.837Z,11.59
2023-03-15T11:06:59.837Z,11.93
2023-03-15T11:07:59.817Z,12.25
2023-03-15T11:08:59.809Z,12.47
2023-03-15T11:09:59.824Z,12.71
2023-03-15T11:10:59.786Z,12.77
2023-03-15T11:11:59.781Z,12.72
2023-03-15T11:12:59.798Z,12.50
2023-03-15T11:13:59.762Z,12.30
2023-03-15T11:14:59.775Z,12.18
2023-03-15T11:15:59.777Z,12.11
2023-03-15T11:16:59.730Z,11.93
2023-03-15T11:17:59.711Z,11.70
2023-03-15T11:18:59.734Z,11.56
2023-03-15T11:19:59.720Z,11.40
2023-03-15T11:20:59.689Z,11.23
2023-03-15T11:21:59.677Z,11.04
2023-03-15T11:22:59.697Z,10.91
2023-03-15T11:23:59.653Z,10.76
2023-03-15T11:24:59.722Z,10.64
2023-03-15T11:25:59.642Z,10.55
2023-03-15T11:26:59.625Z,10.38
2023-03-15T11:27:59.645Z,10.64
2023-03-15T11:28:59.847Z,10.97
2023-03-15T11:29:59.637Z,11.22
2023-03-15T11:30:59.587Z,11.49
2023-03-15T11:31:59.566Z,11.71
2023-03-15T11:32:59.638Z,11.96
2023-03-15T11:33:59.577Z,12.17
2023-03-15T11:34:59.556Z,12.33
2023-03-15T11:35:59.587Z,12.50
2023-03-15T11:37:08.069Z,12.53
2023-03-15T11:38:12.918Z,12.61
2023-03-15T11:39:02.891Z,12.84
2023-03-15T11:40:10.574Z,13.09
2023-03-15T11:41:00.470Z,13.30
2023-03-15T11:41:59.463Z,13.46
2023-03-15T11:42:59.472Z,13.63
2023-03-15T11:43:59.457Z,13.75
2023-03-15T11:44:59.452Z,13.91
2023-03-15T11:45:59.496Z,14.04
2023-03-15T11:46:59.423Z,14.22
2023-03-15T11:47:59.426Z,14.40
2023-03-15T11:48:59.402Z,14.51
2023-03-15T11:49:59.397Z,14.53
2023-03-15T11:50:59.411Z,14.74
2023-03-15T11:51:59.368Z,15.03
2023-03-15T11:52:59.368Z,15.17
2023-03-15T11:53:59.340Z,15.30
2023-03-15T11:54:59.359Z,15.44
2023-03-15T11:55:59.320Z,15.14
2023-03-15T11:56:59.320Z,15.04
2023-03-15T11:57:59.292Z,14.92
2023-03-15T11:59:01.076Z,15.05
2023-03-15T11:59:59.369Z,15.23
2023-03-15T12:00:59.286Z,15.35
2023-03-15T12:01:59.266Z,15.27
2023-03-15T12:02:59.279Z,15.33
2023-03-15T12:03:59.241Z,15.48
2023-03-15T12:05:03.962Z,15.47
2023-03-15T12:06:00.239Z,15.50
2023-03-15T12:06:59.215Z,15.69
2023-03-15T12:07:59.215Z,15.84
2023-03-15T12:08:59.191Z,15.87
2023-03-15T12:09:59.184Z,16.02
2023-03-15T12:10:59.186Z,16.21
2023-03-15T12:11:59.146Z,16.43
2023-03-15T12:12:59.142Z,16.62
2023-03-15T12:13:59.141Z,16.79
2023-03-15T12:14:59.171Z,16.94
2023-03-15T12:15:59.113Z,17.16
2023-03-15T12:16:59.115Z,17.30
2023-03-15T12:17:59.091Z,17.17
2023-03-15T12:18:59.100Z,17.30
2023-03-15T12:19:59.088Z,17.46
2023-03-15T12:20:59.057Z,17.47
2023-03-15T12:21:59.045Z,17.56
2023-03-15T12:22:59.058Z,17.30
2023-03-15T12:23:59.024Z,17.25
2023-03-15T12:24:59.038Z,17.35
2023-03-15T12:25:59.006Z,17.19
2023-03-15T12:26:58.998Z,16.97
2023-03-15T12:27:58.983Z,16.84
2023-03-15T12:28:58.977Z,16.62
2023-03-15T12:29:59.015Z,16.62
2023-03-15T12:30:58.988Z,16.73
2023-03-15T12:31:58.943Z,16.98
2023-03-15T12:32:58.954Z,17.16
2023-03-15T12:33:58.911Z,17.01
2023-03-15T12:34:58.908Z,16.77
2023-03-15T12:35:58.922Z,16.67
2023-03-15T12:36:58.899Z,16.80
2023-03-15T12:37:58.892Z,16.95
2023-03-15T12:38:58.850Z,16.58
2023-03-15T12:39:58.846Z,16.28
2023-03-15T12:40:58.854Z,16.02
2023-03-15T12:41:58.823Z,15.93
2023-03-15T12:42:58.817Z,15.68
2023-03-15T12:43:58.830Z,15.44
2023-03-15T12:44:58.802Z,15.63
2023-03-15T12:45:58.813Z,15.59
2023-03-15T12:46:58.770Z,15.38
2023-03-15T12:47:58.762Z,15.10
2023-03-15T12:48:58.743Z,14.85
2023-03-15T12:49:58.740Z,14.67
2023-03-15T12:50:58.742Z,14.59
2023-03-15T12:51:59.500Z,14.61
2023-03-15T12:52:58.705Z,14.51
2023-03-15T12:53:58.695Z,14.36
2023-03-15T12:54:58.684Z,14.12
2023-03-15T12:56:08.049Z,13.73
2023-03-15T12:56:59.656Z,13.58
2023-03-15T12:57:58.653Z,13.46
2023-03-15T12:58:58.648Z,13.40
2023-03-15T12:59:58.639Z,13.21
2023-03-15T13:00:58.638Z,13.11
2023-03-15T13:01:58.612Z,13.02
2023-03-15T13:03:00.323Z,12.95
2023-03-15T13:03:58.598Z,12.90
2023-03-15T13:04:58.580Z,12.81
2023-03-15T13:06:03.818Z,12.76
2023-03-15T13:06:59.552Z,12.68
2023-03-15T13:07:58.558Z,12.68
2023-03-15T13:08:58.544Z,12.61
2023-03-15T13:09:58.542Z,12.51
2023-03-15T13:10:58.542Z,12.47
2023-03-15T13:11:58.514Z,12.44
2023-03-15T13:12:58.495Z,12.44